Time;durP1;ratioP1;P1;durP2;ratioP2;P2;SDS_P1;SDS_P2;PMS_P1;PMS_P2;Temp;Humidity;BMP_temperature;BMP_pressure;BME280_temperature;BME280_humidity;BME280_pressure;Samples;Min_cycle;Max_cycle;Signal;HPM_P1;HPM_P2
2022/09/09 00:02:05;;;;;;;1.40;0.40;;;23.70;48.10;;;;;;4909809;29;21637;-67
2022/09/09 00:04:36;;;;;;;0.90;0.50;;;23.70;48.10;;;;;;4923771;29;20571;-67
2022/09/09 00:07:10;;;;;;;0.83;0.50;;;23.70;48.00;;;;;;4911666;29;20571;-67
2022/09/09 00:09:45;;;;;;;0.90;0.50;;;23.70;48.00;;;;;;4910131;29;20452;-68
2022/09/09 00:12:18;;;;;;;0.80;0.50;;;23.60;47.90;;;;;;4913796;29;20451;-67
2022/09/09 00:14:52;;;;;;;1.57;0.50;;;23.60;47.90;;;;;;4912771;29;20471;-67
2022/09/09 00:17:34;;;;;;;1.30;0.70;;;23.60;47.90;;;;;;4894093;29;20480;-67
2022/09/09 00:20:06;;;;;;;0.50;0.40;;;23.60;48.00;;;;;;4911940;29;20452;-66
2022/09/09 00:22:35;;;;;;;0.60;0.40;;;23.60;47.90;;;;;;4913147;29;20507;-67
2022/09/09 00:25:12;;;;;;;1.30;0.83;;;23.60;47.90;;;;;;4909714;29;20477;-68
2022/09/09 00:27:45;;;;;;;0.90;0.40;;;23.60;47.90;;;;;;4913558;29;20535;-67
2022/09/09 00:30:19;;;;;;;1.00;0.53;;;23.60;47.80;;;;;;4913133;29;20476;-67
2022/09/09 00:32:51;;;;;;;0.70;0.50;;;23.60;47.80;;;;;;4912429;29;20476;-67
2022/09/09 00:35:25;;;;;;;1.70;0.57;;;23.60;47.80;;;;;;4911649;29;20551;-67
2022/09/09 00:37:57;;;;;;;2.87;0.70;;;23.60;47.80;;;;;;4896850;29;20531;-68
2022/09/09 00:40:31;;;;;;;1.10;0.60;;;23.60;47.80;;;;;;4919821;29;20456;-66
2022/09/09 00:43:15;;;;;;;1.17;0.60;;;23.60;47.80;;;;;;4908812;29;20499;-66
2022/09/09 00:46:00;;;;;;;1.23;0.90;;;23.60;48.00;;;;;;4912787;29;20503;-66
2022/09/09 00:48:37;;;;;;;2.10;0.50;;;23.60;47.80;;;;;;4912433;29;20476;-67
2022/09/09 00:51:13;;;;;;;1.50;0.43;;;23.50;47.70;;;;;;4913565;29;20589;-67
2022/09/09 00:54:06;;;;;;;0.80;0.50;;;23.60;47.90;;;;;;4912027;29;20480;-67
2022/09/09 00:56:42;;;;;;;0.80;0.50;;;23.60;47.90;;;;;;4903534;29;20536;-67
2022/09/09 00:59:25;;;;;;;0.87;0.60;;;23.60;47.90;;;;;;4912608;29;20492;-66
2022/09/09 01:01:56;;;;;;;1.50;0.60;;;23.60;47.90;;;;;;4912570;29;20830;-68
2022/09/09 01:04:36;;;;;;;0.57;0.47;;;23.60;49.10;;;;;;4918608;29;20530;-67
2022/09/09 01:07:16;;;;;;;0.80;0.47;;;23.60;47.90;;;;;;4911301;29;20502;-65
2022/09/09 01:09:55;;;;;;;0.77;0.50;;;23.50;47.80;;;;;;4908581;29;20460;-67
2022/09/09 01:12:34;;;;;;;1.90;0.60;;;23.50;47.80;;;;;;4905598;29;20508;-66
2022/09/09 01:15:09;;;;;;;1.17;0.50;;;23.50;47.80;;;;;;4927480;29;20864;-67
2022/09/09 01:17:54;;;;;;;0.90;0.40;;;23.60;47.90;;;;;;4919611;29;20484;-65
2022/09/09 01:20:27;;;;;;;1.70;0.60;;;23.50;47.80;;;;;;4894191;29;20503;-68
2022/09/09 01:23:21;;;;;;;0.70;0.53;;;23.50;47.80;;;;;;4910954;29;20478;-67
2022/09/09 01:26:22;;;;;;;0.50;0.40;;;23.50;47.80;;;;;;4910989;29;20468;-67
2022/09/09 01:28:53;;;;;;;0.67;0.50;;;23.50;47.80;;;;;;4912001;29;20487;-65
2022/09/09 01:31:33;;;;;;;0.60;0.50;;;23.50;47.80;;;;;;4906059;29;20445;-66
2022/09/09 01:34:02;;;;;;;0.80;0.40;;;23.50;47.80;;;;;;4909215;28;21232;-66
2022/09/09 01:36:39;;;;;;;1.63;0.47;;;23.50;47.90;;;;;;4910777;29;20687;-67
2022/09/09 01:39:08;;;;;;;0.83;0.70;;;23.50;47.80;;;;;;4920378;29;20563;-67
2022/09/09 01:41:39;;;;;;;1.07;0.50;;;23.50;47.90;;;;;;4911138;29;20436;-66
2022/09/09 01:44:11;;;;;;;2.47;0.87;;;23.50;47.90;;;;;;4909013;29;20478;-67
2022/09/09 01:46:43;;;;;;;0.90;0.60;;;23.50;47.80;;;;;;4911880;29;20492;-67
2022/09/09 01:49:19;;;;;;;0.70;0.50;;;23.50;47.90;;;;;;4911176;29;20459;-66
2022/09/09 01:51:50;;;;;;;0.60;0.50;;;23.50;47.90;;;;;;4896470;29;20456;-67
2022/09/09 01:54:25;;;;;;;0.80;0.50;;;23.50;48.00;;;;;;4911792;29;20475;-68
2022/09/09 01:57:07;;;;;;;1.17;0.50;;;23.50;47.80;;;;;;4909832;29;20452;-67
2022/09/09 01:59:53;;;;;;;0.93;0.70;;;23.50;47.90;;;;;;4915441;29;20792;-66
2022/09/09 02:02:27;;;;;;;1.23;0.87;;;23.50;47.90;;;;;;4923021;29;20428;-66
2022/09/09 02:05:34;;;;;;;2.13;0.77;;;23.50;47.90;;;;;;4967090;28;20482;-73
2022/09/09 02:08:07;;;;;;;0.90;0.60;;;23.50;48.00;;;;;;4956172;28;20466;-73
2022/09/09 02:10:51;;;;;;;0.60;0.50;;;23.40;47.80;;;;;;4956247;28;20450;-73
2022/09/09 02:13:35;;;;;;;1.27;0.60;;;23.40;47.90;;;;;;4939653;28;20467;-73
2022/09/09 02:16:09;;;;;;;1.40;0.60;;;23.50;47.90;;;;;;4969464;28;20435;-73
2022/09/09 02:18:45;;;;;;;1.07;0.67;;;23.40;47.80;;;;;;4961001;28;21067;-73
2022/09/09 02:21:15;;;;;;;1.77;0.77;;;23.40;47.80;;;;;;4956163;28;20443;-74
2022/09/09 02:23:46;;;;;;;1.40;0.57;;;23.40;47.80;;;;;;4955499;28;20505;-73
2022/09/09 02:26:20;;;;;;;2.00;0.80;;;23.40;47.90;;;;;;4954711;28;20465;-73
2022/09/09 02:28:56;;;;;;;1.23;0.70;;;23.40;47.90;;;;;;4951878;28;20708;-73
2022/09/09 02:31:26;;;;;;;0.73;0.67;;;23.40;47.90;;;;;;4949709;28;20572;-73
2022/09/09 02:34:02;;;;;;;2.07;0.83;;;23.40;47.90;;;;;;4946818;28;20990;-73
2022/09/09 02:36:34;;;;;;;0.80;0.57;;;23.40;47.90;;;;;;4952058;28;20466;-73
2022/09/09 02:39:06;;;;;;;1.00;0.70;;;23.40;47.80;;;;;;4960689;28;20465;-73
2022/09/09 02:41:39;;;;;;;0.83;0.60;;;23.40;47.80;;;;;;4953115;28;20461;-73
2022/09/09 02:44:12;;;;;;;1.63;0.70;;;23.40;47.90;;;;;;4951202;28;20470;-73
2022/09/09 02:47:05;;;;;;;1.07;0.60;;;23.40;47.90;;;;;;4936461;29;20471;-73
2022/09/09 02:49:45;;;;;;;3.93;0.70;;;23.40;47.80;;;;;;4949484;28;20877;-74
2022/09/09 02:52:16;;;;;;;1.03;0.73;;;23.40;48.00;;;;;;4970778;28;20440;-73
2022/09/09 02:54:45;;;;;;;1.43;0.70;;;23.40;47.90;;;;;;4948125;28;20470;-74
2022/09/09 02:57:20;;;;;;;1.27;0.67;;;23.40;47.90;;;;;;4955456;28;20446;-73
2022/09/09 02:59:52;;;;;;;1.57;0.60;;;23.40;48.00;;;;;;4955872;28;20438;-73
2022/09/09 03:02:21;;;;;;;1.50;0.57;;;23.30;47.90;;;;;;4949195;28;20459;-73
2022/09/09 03:04:55;;;;;;;0.87;0.70;;;23.30;47.90;;;;;;4943578;28;20482;-74
2022/09/09 03:07:23;;;;;;;0.93;0.60;;;23.30;48.00;;;;;;4949517;28;20463;-73
2022/09/09 03:09:54;;;;;;;0.83;0.60;;;23.30;48.00;;;;;;4949809;28;20430;-73
2022/09/09 03:12:25;;;;;;;1.00;0.90;;;23.30;48.10;;;;;;4939636;28;20474;-74
2022/09/09 03:14:56;;;;;;;1.17;0.70;;;23.30;48.10;;;;;;4949222;28;21011;-73
2022/09/09 03:17:27;;;;;;;1.77;0.80;;;23.30;48.10;;;;;;4931485;28;20462;-74
2022/09/09 03:19:57;;;;;;;1.00;0.60;;;23.30;48.10;;;;;;4952210;28;20590;-75
2022/09/09 03:22:26;;;;;;;1.90;0.70;;;23.30;48.10;;;;;;4947924;28;20519;-74
2022/09/09 03:24:56;;;;;;;2.00;0.70;;;23.30;48.10;;;;;;4951043;28;20470;-73
2022/09/09 03:27:25;;;;;;;1.43;0.90;;;23.30;48.10;;;;;;4952485;28;20892;-73
2022/09/09 03:29:55;;;;;;;1.00;0.90;;;23.30;48.10;;;;;;4967585;28;20434;-73
2022/09/09 03:32:26;;;;;;;2.03;0.80;;;23.30;48.10;;;;;;4954154;28;20499;-74
2022/09/09 03:34:57;;;;;;;1.37;0.87;;;23.30;48.10;;;;;;4951337;28;20547;-74
2022/09/09 03:37:26;;;;;;;0.77;0.63;;;23.30;48.10;;;;;;4950070;28;20521;-73
2022/09/09 03:39:55;;;;;;;2.73;0.80;;;23.30;48.10;;;;;;4949910;28;20499;-74
2022/09/09 03:42:24;;;;;;;1.10;0.80;;;23.30;48.10;;;;;;4947129;28;20497;-73
2022/09/09 03:44:57;;;;;;;1.43;0.50;;;23.20;48.00;;;;;;4945455;28;20458;-73
2022/09/09 03:47:27;;;;;;;1.43;0.80;;;23.20;48.00;;;;;;4952162;28;20478;-74
2022/09/09 03:50:03;;;;;;;1.47;0.70;;;23.30;48.10;;;;;;4946662;28;20427;-73
2022/09/09 03:52:35;;;;;;;1.20;0.70;;;23.30;48.20;;;;;;4953446;28;20501;-73
2022/09/09 03:55:07;;;;;;;0.90;0.67;;;23.20;48.00;;;;;;4942191;28;20981;-73
2022/09/09 03:57:37;;;;;;;1.10;0.80;;;23.20;48.10;;;;;;4951929;28;20525;-73
2022/09/09 04:00:11;;;;;;;2.53;0.77;;;23.20;48.10;;;;;;4953255;28;20502;-73
2022/09/09 04:02:56;;;;;;;1.30;0.83;;;23.20;48.10;;;;;;4950511;28;20533;-73
2022/09/09 04:05:25;;;;;;;1.40;0.67;;;23.20;48.00;;;;;;4964322;28;20467;-74
2022/09/09 04:07:54;;;;;;;0.90;0.60;;;23.20;48.10;;;;;;4985852;28;20473;-74
2022/09/09 04:10:22;;;;;;;1.90;0.80;;;23.20;48.10;;;;;;4947791;28;20676;-73
2022/09/09 04:12:53;;;;;;;1.30;0.50;;;23.20;48.20;;;;;;4950334;28;20471;-73
2022/09/09 04:15:24;;;;;;;1.43;0.60;;;23.20;48.10;;;;;;4952465;28;20466;-73
2022/09/09 04:17:52;;;;;;;1.57;0.57;;;23.20;48.20;;;;;;4952231;28;20426;-73
2022/09/09 04:20:21;;;;;;;1.30;0.73;;;23.20;48.10;;;;;;4952728;28;20454;-73
2022/09/09 04:22:50;;;;;;;1.17;0.70;;;23.20;48.10;;;;;;4949560;28;20738;-73
2022/09/09 04:25:18;;;;;;;1.27;0.67;;;23.20;48.10;;;;;;4948390;28;20471;-73
2022/09/09 04:27:48;;;;;;;1.07;0.70;;;23.20;48.10;;;;;;4948496;28;20467;-73
2022/09/09 04:30:16;;;;;;;1.17;0.60;;;23.20;48.10;;;;;;4946503;28;20530;-74
2022/09/09 04:32:46;;;;;;;1.57;0.70;;;23.20;48.20;;;;;;4950611;28;20512;-73
2022/09/09 04:35:15;;;;;;;1.80;1.03;;;23.20;49.40;;;;;;4950436;28;20462;-74
2022/09/09 04:37:44;;;;;;;2.00;0.60;;;23.20;48.20;;;;;;4952886;28;20437;-73
2022/09/09 04:40:13;;;;;;;1.13;0.57;;;23.10;48.10;;;;;;4950668;28;20926;-74
2022/09/09 04:42:43;;;;;;;1.37;0.93;;;23.10;48.10;;;;;;4951480;28;20557;-73
2022/09/09 04:45:15;;;;;;;3.73;0.90;;;23.20;48.20;;;;;;4964243;28;20554;-73
2022/09/09 04:47:43;;;;;;;1.20;0.60;;;23.10;48.10;;;;;;4952365;28;21037;-73
2022/09/09 04:50:13;;;;;;;1.87;0.80;;;23.10;48.10;;;;;;4934197;28;21083;-74
2022/09/09 04:52:42;;;;;;;1.13;0.60;;;23.10;48.10;;;;;;4959563;28;20986;-73
2022/09/09 04:55:10;;;;;;;0.90;0.67;;;23.10;48.10;;;;;;4950579;28;20467;-73
2022/09/09 04:57:38;;;;;;;2.10;0.63;;;23.10;48.10;;;;;;4967672;28;20517;-73
2022/09/09 05:00:08;;;;;;;1.20;0.73;;;23.10;48.10;;;;;;4947367;28;20462;-73
2022/09/09 05:02:42;;;;;;;0.70;0.60;;;23.10;48.20;;;;;;4949829;28;20872;-74
2022/09/09 05:05:11;;;;;;;1.20;0.70;;;23.10;48.10;;;;;;4948248;28;20570;-74
2022/09/09 05:07:43;;;;;;;1.00;0.70;;;23.10;48.20;;;;;;4952505;28;20498;-73
2022/09/09 05:10:13;;;;;;;1.97;0.70;;;23.10;48.20;;;;;;4951182;28;20546;-73
2022/09/09 05:12:43;;;;;;;1.00;0.70;;;23.10;48.20;;;;;;4948953;28;20462;-74
2022/09/09 05:15:12;;;;;;;1.00;0.70;;;23.10;49.50;;;;;;4951065;28;20460;-74
2022/09/09 05:17:41;;;;;;;1.80;0.70;;;23.10;48.20;;;;;;4945059;28;20477;-73
2022/09/09 05:20:10;;;;;;;2.40;0.90;;;23.10;48.10;;;;;;4952482;28;20467;-73
2022/09/09 05:22:46;;;;;;;1.57;0.80;;;23.10;48.20;;;;;;4944583;28;20482;-73
2022/09/09 05:25:16;;;;;;;1.13;0.67;;;23.10;48.20;;;;;;4936945;28;20561;-73
2022/09/09 05:27:45;;;;;;;3.10;0.83;;;23.10;48.10;;;;;;4946776;28;20534;-74
2022/09/09 05:30:13;;;;;;;2.30;0.90;;;23.10;48.20;;;;;;4942162;28;20891;-74
2022/09/09 05:32:43;;;;;;;2.63;1.10;;;23.00;48.00;;;;;;4944840;29;20554;-69
2022/09/09 05:35:13;;;;;;;1.47;1.00;;;23.00;48.10;;;;;;4963127;28;21009;-71
2022/09/09 05:37:41;;;;;;;1.03;0.60;;;23.00;48.10;;;;;;4952952;28;20467;-71
2022/09/09 05:40:12;;;;;;;1.90;0.77;;;23.00;48.10;;;;;;4954071;28;20537;-69
2022/09/09 05:42:41;;;;;;;1.67;1.20;;;23.00;48.10;;;;;;4955426;28;20853;-69
2022/09/09 05:45:10;;;;;;;1.73;0.97;;;23.00;49.40;;;;;;4955085;28;20462;-70
2022/09/09 05:47:39;;;;;;;2.60;0.70;;;22.90;48.10;;;;;;4961340;28;20509;-69
2022/09/09 05:50:12;;;;;;;1.17;0.67;;;23.00;48.20;;;;;;4949679;28;20477;-70
2022/09/09 05:52:41;;;;;;;2.70;1.03;;;23.00;48.10;;;;;;4954078;28;20458;-70
2022/09/09 05:55:11;;;;;;;3.00;1.00;;;22.90;48.10;;;;;;4959118;28;20497;-69
2022/09/09 05:57:40;;;;;;;2.07;0.90;;;22.90;48.10;;;;;;4947549;28;20505;-69
2022/09/09 06:00:10;;;;;;;1.53;0.80;;;22.90;48.10;;;;;;4955552;28;20791;-70
2022/09/09 06:02:41;;;;;;;1.23;0.60;;;22.90;48.10;;;;;;4968291;28;20453;-70
2022/09/09 06:05:13;;;;;;;2.00;0.70;;;22.90;48.10;;;;;;4962851;28;20854;-70
2022/09/09 06:07:43;;;;;;;1.83;0.90;;;22.90;48.10;;;;;;4971237;28;20445;-70
2022/09/09 06:10:14;;;;;;;1.50;0.73;;;22.90;48.10;;;;;;4945565;28;20454;-70
2022/09/09 06:12:42;;;;;;;3.47;0.73;;;22.90;48.10;;;;;;4954024;28;20525;-69
2022/09/09 06:15:11;;;;;;;0.97;0.60;;;22.90;48.10;;;;;;4946679;28;20474;-69
2022/09/09 06:17:41;;;;;;;1.13;0.77;;;22.90;48.10;;;;;;4954457;28;20441;-69
2022/09/09 06:20:10;;;;;;;2.20;1.00;;;22.90;48.10;;;;;;4938653;28;20444;-68
2022/09/09 06:22:40;;;;;;;1.80;0.80;;;22.90;48.10;;;;;;4949074;28;20902;-69
2022/09/09 06:25:09;;;;;;;1.63;0.80;;;22.90;48.10;;;;;;4969159;28;21077;-70
2022/09/09 06:27:41;;;;;;;2.03;0.70;;;22.90;48.10;;;;;;4965157;28;20446;-69
2022/09/09 06:30:11;;;;;;;1.93;0.70;;;22.90;48.20;;;;;;4953078;28;20446;-70
2022/09/09 06:32:39;;;;;;;1.20;0.80;;;22.90;48.20;;;;;;4951959;28;20533;-69
2022/09/09 06:35:09;;;;;;;1.20;0.97;;;22.80;48.00;;;;;;4957787;28;20466;-69
2022/09/09 06:37:37;;;;;;;5.23;1.03;;;22.90;48.10;;;;;;4953968;28;20533;-69
2022/09/09 06:40:06;;;;;;;3.07;1.17;;;22.80;48.10;;;;;;4936815;28;20474;-70
2022/09/09 06:42:35;;;;;;;1.60;1.10;;;22.80;48.90;;;;;;4952200;28;20439;-69
2022/09/09 06:45:23;;;;;;;1.53;1.23;;;22.80;48.10;;;;;;4959092;28;20474;-68
2022/09/09 06:47:56;;;;;;;1.40;0.60;;;22.80;48.00;;;;;;4952243;28;20478;-71
2022/09/09 06:50:25;;;;;;;2.00;0.73;;;22.90;48.20;;;;;;4949270;28;20537;-69
2022/09/09 06:52:53;;;;;;;2.60;0.80;;;22.80;48.00;;;;;;4950675;28;21138;-70
2022/09/09 06:55:22;;;;;;;2.37;0.77;;;22.80;48.00;;;;;;4952570;28;21077;-70
2022/09/09 06:57:50;;;;;;;2.70;1.23;;;22.80;48.10;;;;;;4948933;28;20466;-71
2022/09/09 07:00:24;;;;;;;1.93;1.10;;;22.80;48.00;;;;;;4947651;28;20451;-70
2022/09/09 07:02:53;;;;;;;1.60;1.03;;;22.80;48.00;;;;;;4954098;28;20497;-70
2022/09/09 07:05:22;;;;;;;2.57;0.80;;;22.80;48.00;;;;;;4947091;28;20479;-70
2022/09/09 07:07:52;;;;;;;2.07;1.30;;;22.80;47.90;;;;;;4970181;28;20462;-69
2022/09/09 07:10:21;;;;;;;1.63;1.10;;;22.80;48.10;;;;;;4950154;28;20897;-69
2022/09/09 07:12:52;;;;;;;2.33;1.20;;;22.80;47.90;;;;;;4960122;28;20454;-69
2022/09/09 07:15:24;;;;;;;2.50;1.13;;;22.80;47.80;;;;;;4947423;28;20548;-70
2022/09/09 07:17:54;;;;;;;2.20;1.37;;;22.80;47.80;;;;;;4944097;28;20793;-69
2022/09/09 07:20:22;;;;;;;3.43;1.00;;;22.80;47.80;;;;;;4954135;28;20431;-69
2022/09/09 07:22:55;;;;;;;1.77;1.00;;;22.80;47.90;;;;;;4955471;28;20853;-69
2022/09/09 07:25:23;;;;;;;1.43;0.70;;;22.80;47.90;;;;;;4939217;28;20463;-69
2022/09/09 07:27:52;;;;;;;2.30;0.83;;;22.80;47.80;;;;;;4962248;28;20446;-69
2022/09/09 07:30:20;;;;;;;2.00;1.27;;;22.80;47.80;;;;;;4968946;28;20913;-69
2022/09/09 07:32:58;;;;;;;2.27;1.10;;;22.80;47.80;;;;;;4942287;28;20545;-69
2022/09/09 07:35:26;;;;;;;2.80;1.17;;;22.80;47.80;;;;;;4962560;28;20467;-69
2022/09/09 07:37:55;;;;;;;2.33;1.10;;;22.80;47.80;;;;;;4946762;28;20855;-69
2022/09/09 07:40:24;;;;;;;2.80;1.00;;;22.80;47.80;;;;;;4942262;28;20486;-69
2022/09/09 07:42:53;;;;;;;1.97;0.73;;;22.80;47.80;;;;;;4965274;28;20554;-70
2022/09/09 07:45:22;;;;;;;3.00;1.10;;;22.80;47.70;;;;;;4943127;28;20609;-69
2022/09/09 07:47:52;;;;;;;1.13;0.90;;;22.80;47.80;;;;;;4948329;28;20443;-69
2022/09/09 07:50:22;;;;;;;1.93;0.97;;;22.80;47.80;;;;;;4956605;28;20538;-70
2022/09/09 07:52:51;;;;;;;2.57;1.00;;;22.80;47.90;;;;;;4968969;28;20874;-69
2022/09/09 07:55:21;;;;;;;4.00;0.97;;;22.80;47.80;;;;;;4943712;28;20545;-69
2022/09/09 07:57:50;;;;;;;3.27;0.80;;;22.80;47.80;;;;;;4953028;28;20439;-69
2022/09/09 08:00:19;;;;;;;2.27;1.03;;;22.80;47.80;;;;;;4944266;28;20438;-70
2022/09/09 08:02:53;;;;;;;3.17;1.00;;;22.80;47.60;;;;;;4963243;28;20489;-70
2022/09/09 08:05:24;;;;;;;2.30;1.10;;;22.80;47.60;;;;;;4964599;23;20862;-67
2022/09/09 08:07:53;;;;;;;2.07;1.20;;;22.80;47.60;;;;;;4925468;29;20456;-67
2022/09/09 08:10:22;;;;;;;1.17;0.93;;;22.80;47.70;;;;;;4912068;29;20480;-67
2022/09/09 08:12:52;;;;;;;2.33;1.07;;;22.80;47.60;;;;;;4929129;29;20464;-67
2022/09/09 08:15:43;;;;;;;1.30;0.80;;;22.80;47.70;;;;;;4916866;29;20472;-66
2022/09/09 08:18:12;;;;;;;3.30;1.20;;;22.70;47.50;;;;;;4927418;28;20557;-67
2022/09/09 08:20:42;;;;;;;2.50;1.20;;;22.70;47.50;;;;;;4908798;29;20453;-66
2022/09/09 08:23:10;;;;;;;3.03;1.43;;;22.70;50.50;;;;;;4910839;29;20560;-66
2022/09/09 08:25:38;;;;;;;1.90;0.77;;;22.70;48.10;;;;;;4912577;29;20852;-67
2022/09/09 08:28:07;;;;;;;3.03;1.10;;;22.70;47.50;;;;;;4922853;28;20592;-66
2022/09/09 08:30:37;;;;;;;1.30;0.90;;;22.70;47.30;;;;;;4928836;29;20490;-65
2022/09/09 08:33:07;;;;;;;3.20;1.23;;;22.70;47.40;;;;;;4918319;29;20446;-67
2022/09/09 08:35:36;;;;;;;7.03;1.27;;;22.70;47.30;;;;;;4928799;29;20473;-66
2022/09/09 08:38:06;;;;;;;2.83;1.30;;;22.70;47.30;;;;;;4926470;29;20486;-66
2022/09/09 08:40:45;;;;;;;2.80;0.87;;;22.70;47.30;;;;;;4904637;29;20453;-67
2022/09/09 08:43:17;;;;;;;4.00;1.13;;;22.70;47.30;;;;;;4912947;29;20551;-66
2022/09/09 08:45:57;;;;;;;1.60;0.97;;;22.70;47.20;;;;;;4912769;29;20449;-67
2022/09/09 08:48:44;;;;;;;1.10;0.63;;;22.70;47.20;;;;;;4924048;29;20989;-66
2022/09/09 08:51:14;;;;;;;2.87;1.03;;;22.70;47.30;;;;;;4928484;29;20476;-67
2022/09/09 08:53:48;;;;;;;2.17;1.00;;;22.70;47.20;;;;;;4909857;29;20563;-65
2022/09/09 08:56:22;;;;;;;1.30;0.97;;;22.70;47.10;;;;;;4912223;29;20560;-66
2022/09/09 08:58:56;;;;;;;2.07;0.80;;;22.70;47.20;;;;;;4927728;28;20472;-66
2022/09/09 09:01:44;;;;;;;1.47;0.80;;;22.70;47.20;;;;;;4912910;29;20527;-66
2022/09/09 09:04:32;;;;;;;1.80;0.90;;;22.70;47.20;;;;;;4910701;29;20876;-68
2022/09/09 09:07:11;;;;;;;2.27;1.00;;;22.70;47.10;;;;;;4929000;29;20440;-66
2022/09/09 09:09:46;;;;;;;2.30;1.10;;;22.70;47.20;;;;;;4928139;29;20491;-66
2022/09/09 09:12:19;;;;;;;1.83;1.00;;;22.70;47.20;;;;;;4909752;29;21005;-65
2022/09/09 09:14:49;;;;;;;1.53;0.87;;;22.60;47.10;;;;;;4926836;29;20563;-67
2022/09/09 09:17:21;;;;;;;2.70;1.00;;;22.70;47.10;;;;;;4911729;29;20483;-66
2022/09/09 09:19:50;;;;;;;1.00;0.60;;;22.70;47.20;;;;;;4924455;29;20928;-65
2022/09/09 09:22:22;;;;;;;1.33;0.77;;;22.70;47.20;;;;;;4928761;29;20460;-66
2022/09/09 09:25:03;;;;;;;1.60;1.00;;;22.70;47.10;;;;;;4925844;29;20472;-67
2022/09/09 09:27:35;;;;;;;0.93;0.70;;;22.60;47.00;;;;;;4911967;29;20448;-66
2022/09/09 09:30:17;;;;;;;2.87;0.63;;;22.70;47.10;;;;;;4909324;29;20471;-66
2022/09/09 09:33:04;;;;;;;0.90;0.60;;;22.70;47.10;;;;;;4928507;29;20460;-66
2022/09/09 09:35:32;;;;;;;1.90;0.90;;;22.60;48.30;;;;;;4910724;29;20468;-66
2022/09/09 09:38:17;;;;;;;1.53;0.83;;;22.60;47.00;;;;;;4928507;29;20849;-66
2022/09/09 09:41:07;;;;;;;2.60;0.83;;;22.60;47.10;;;;;;4926756;29;20456;-66
2022/09/09 09:43:40;;;;;;;1.30;0.60;;;22.60;47.10;;;;;;4927117;29;20472;-66
2022/09/09 09:46:23;;;;;;;1.80;0.70;;;22.70;47.20;;;;;;4921305;29;20437;-65
2022/09/09 09:48:58;;;;;;;1.87;0.93;;;22.70;47.20;;;;;;4910768;29;20480;-66
2022/09/09 09:51:30;;;;;;;3.27;1.03;;;22.60;47.10;;;;;;4912860;29;20527;-67
2022/09/09 09:54:10;;;;;;;1.40;0.87;;;22.70;47.20;;;;;;4920452;28;20930;-66
2022/09/09 09:56:41;;;;;;;1.73;0.70;;;22.60;47.00;;;;;;4916555;29;20957;-67
2022/09/09 09:59:22;;;;;;;2.53;0.80;;;22.60;47.00;;;;;;4910137;29;20484;-65
2022/09/09 10:02:20;;;;;;;1.30;0.83;;;22.70;47.10;;;;;;4926964;29;20535;-66
2022/09/09 10:05:04;;;;;;;1.53;0.63;;;22.70;47.10;;;;;;4919386;29;20894;-65
2022/09/09 10:07:37;;;;;;;3.70;0.90;;;22.60;47.00;;;;;;4904291;29;21055;-67
2022/09/09 10:10:09;;;;;;;1.00;0.63;;;22.70;47.10;;;;;;4926482;29;20465;-68
2022/09/09 10:12:50;;;;;;;2.90;0.73;;;22.60;47.10;;;;;;4910718;29;20539;-67
2022/09/09 10:15:32;;;;;;;1.93;0.77;;;22.60;47.00;;;;;;4928622;29;20901;-67
2022/09/09 10:18:14;;;;;;;1.43;0.73;;;22.60;47.10;;;;;;4927442;29;20487;-66
2022/09/09 10:20:52;;;;;;;2.40;0.90;;;22.70;47.20;;;;;;4924844;29;20441;-66
2022/09/09 10:23:35;;;;;;;2.70;1.00;;;22.70;47.10;;;;;;4923753;28;20576;-65
2022/09/09 10:26:20;;;;;;;1.00;0.90;;;22.70;47.20;;;;;;4926732;29;20577;-65
2022/09/09 10:29:11;;;;;;;1.13;0.70;;;22.60;47.10;;;;;;4925877;29;20868;-67
2022/09/09 10:31:49;;;;;;;1.70;0.80;;;22.60;47.00;;;;;;4921645;29;20461;-67
2022/09/09 10:34:35;;;;;;;1.73;0.73;;;22.60;47.20;;;;;;4913442;29;21146;-67
2022/09/09 10:37:07;;;;;;;1.07;0.80;;;22.60;47.00;;;;;;4923161;29;20460;-66
2022/09/09 10:39:40;;;;;;;1.87;0.90;;;22.60;47.10;;;;;;4929910;29;20850;-67
2022/09/09 10:42:13;;;;;;;0.80;0.60;;;22.60;47.00;;;;;;4921563;29;20528;-66
2022/09/09 10:45:10;;;;;;;2.20;1.07;;;22.60;47.00;;;;;;4912578;29;20532;-68
2022/09/09 10:48:01;;;;;;;4.90;0.80;;;22.60;47.00;;;;;;4928046;29;20944;-67
2022/09/09 10:50:47;;;;;;;2.90;1.10;;;22.60;47.00;;;;;;4913047;29;20472;-66
2022/09/09 10:53:38;;;;;;;0.70;0.50;;;22.60;47.10;;;;;;4908660;29;20483;-67
2022/09/09 10:56:10;;;;;;;1.20;0.80;;;22.60;47.20;;;;;;4928074;29;20519;-67
2022/09/09 10:58:43;;;;;;;1.33;0.90;;;22.60;47.20;;;;;;4906958;29;20994;-65
2022/09/09 11:01:19;;;;;;;2.17;0.67;;;22.60;47.20;;;;;;4930180;29;20456;-67
2022/09/09 11:03:55;;;;;;;1.83;1.10;;;22.60;47.10;;;;;;4906807;29;20753;-66
2022/09/09 11:06:32;;;;;;;2.37;0.93;;;22.60;47.20;;;;;;4925825;29;20471;-63
2022/09/09 11:09:03;;;;;;;3.70;1.20;;;22.60;47.10;;;;;;4927523;29;20451;-66
2022/09/09 11:11:37;;;;;;;0.97;0.77;;;22.60;47.00;;;;;;4930427;29;20306;-67
2022/09/09 11:14:16;;;;;;;2.33;0.83;;;22.60;47.00;;;;;;4928821;29;20559;-67
2022/09/09 11:16:50;;;;;;;2.73;0.97;;;22.60;47.00;;;;;;4926482;29;21006;-67
2022/09/09 11:19:27;;;;;;;1.50;1.03;;;22.60;47.00;;;;;;4924045;29;20464;-66
2022/09/09 11:21:58;;;;;;;2.03;0.90;;;22.60;46.90;;;;;;4928680;29;20448;-67
2022/09/09 11:24:32;;;;;;;2.93;0.77;;;22.60;46.90;;;;;;4908403;29;20998;-66
2022/09/09 11:27:09;;;;;;;1.10;0.90;;;22.60;47.00;;;;;;4911033;29;20461;-66
2022/09/09 11:30:07;;;;;;;2.10;0.83;;;22.60;47.00;;;;;;4932177;29;21783;-66
2022/09/09 11:33:04;;;;;;;1.67;0.90;;;22.60;47.00;;;;;;4928046;29;20572;-65
2022/09/09 11:35:40;;;;;;;2.20;1.00;;;22.60;47.00;;;;;;4907531;29;20453;-65
2022/09/09 11:38:19;;;;;;;2.07;1.03;;;22.60;46.80;;;;;;4932326;29;20479;-66
2022/09/09 11:40:48;;;;;;;1.27;0.83;;;22.60;46.80;;;;;;4906232;29;20809;-67
2022/09/09 11:43:22;;;;;;;1.30;0.90;;;22.60;46.80;;;;;;4929664;28;20563;-67
2022/09/09 11:45:55;;;;;;;2.43;0.70;;;22.60;46.70;;;;;;4928611;29;20451;-65
2022/09/09 11:48:37;;;;;;;0.80;0.80;;;22.60;46.80;;;;;;4924142;28;20515;-67
2022/09/09 11:51:08;;;;;;;2.40;1.17;;;22.60;46.60;;;;;;4932216;29;20468;-67
2022/09/09 11:53:52;;;;;;;5.87;1.27;;;22.60;46.40;;;;;;4927615;29;20511;-68
2022/09/09 11:56:30;;;;;;;3.47;1.10;;;22.50;46.20;;;;;;4928174;29;20448;-68
2022/09/09 11:59:03;;;;;;;5.23;1.37;;;22.50;46.50;;;;;;4908408;29;20487;-66
2022/09/09 12:01:38;;;;;;;3.90;1.63;;;22.50;46.40;;;;;;4913900;29;20525;-66
2022/09/09 12:04:30;;;;;;;5.50;1.23;;;22.50;46.40;;;;;;4928861;28;21008;-67
2022/09/09 12:07:04;;;;;;;1.43;0.80;;;22.50;46.40;;;;;;4931050;29;20470;-68
2022/09/09 12:09:49;;;;;;;1.73;1.23;;;22.50;46.40;;;;;;4930106;29;20854;-67
2022/09/09 12:12:27;;;;;;;1.63;0.90;;;22.50;46.90;;;;;;4929729;29;20483;-67
2022/09/09 12:15:16;;;;;;;1.83;0.80;;;22.50;47.10;;;;;;4930071;29;20579;-65
2022/09/09 12:17:46;;;;;;;3.77;1.10;;;22.50;47.20;;;;;;4906771;29;20572;-67
2022/09/09 12:20:18;;;;;;;1.40;0.73;;;22.50;47.50;;;;;;4925736;29;20445;-66
2022/09/09 12:23:15;;;;;;;0.93;0.73;;;22.50;47.60;;;;;;4904385;29;20500;-67
2022/09/09 12:26:03;;;;;;;1.33;0.80;;;22.50;47.70;;;;;;4925348;29;20468;-66
2022/09/09 12:28:56;;;;;;;1.70;0.93;;;22.50;47.60;;;;;;4930477;28;20503;-67
2022/09/09 12:31:28;;;;;;;2.70;0.87;;;22.50;47.60;;;;;;4923230;29;20460;-66
2022/09/09 12:33:56;;;;;;;2.00;0.93;;;22.50;48.60;;;;;;4928139;28;20574;-66
2022/09/09 12:36:30;;;;;;;1.10;0.87;;;22.50;47.50;;;;;;4902892;29;20999;-67
2022/09/09 12:39:10;;;;;;;2.00;0.90;;;22.50;47.50;;;;;;4926906;29;20487;-67
2022/09/09 12:41:38;;;;;;;3.10;0.90;;;22.50;47.50;;;;;;4930469;29;20462;-65
2022/09/09 12:44:09;;;;;;;2.30;0.90;;;22.50;47.60;;;;;;4928346;28;20482;-66
2022/09/09 12:46:41;;;;;;;1.67;0.80;;;22.50;47.60;;;;;;4930364;29;20471;-66
2022/09/09 12:49:28;;;;;;;1.40;0.73;;;22.50;47.60;;;;;;4928440;28;20520;-67
2022/09/09 12:51:58;;;;;;;2.10;1.00;;;22.50;47.50;;;;;;4930693;29;21031;-68
2022/09/09 12:54:27;;;;;;;2.60;1.10;;;22.50;47.60;;;;;;4930336;29;20547;-68
2022/09/09 12:56:56;;;;;;;2.10;0.70;;;22.50;47.60;;;;;;4930110;29;20455;-66
2022/09/09 12:59:36;;;;;;;2.30;1.13;;;22.50;47.60;;;;;;4929706;29;20449;-67
2022/09/09 13:02:19;;;;;;;1.27;0.70;;;22.50;47.70;;;;;;4929289;29;20440;-67
2022/09/09 13:04:50;;;;;;;1.40;0.80;;;22.50;47.60;;;;;;4912815;29;20476;-68
2022/09/09 13:07:21;;;;;;;1.40;0.80;;;22.50;47.80;;;;;;4913190;29;21034;-67
2022/09/09 13:09:50;;;;;;;1.00;0.57;;;22.50;47.70;;;;;;4929295;29;20496;-66
2022/09/09 13:12:22;;;;;;;1.63;0.90;;;22.50;47.70;;;;;;4928744;29;20548;-65
2022/09/09 13:14:54;;;;;;;1.27;0.80;;;22.50;47.70;;;;;;4929687;29;20864;-67
2022/09/09 13:17:28;;;;;;;2.53;1.00;;;22.50;47.60;;;;;;4905325;29;20488;-67
2022/09/09 13:19:57;;;;;;;1.40;0.60;;;22.60;47.70;;;;;;4917178;29;20455;-67
2022/09/09 13:22:32;;;;;;;0.60;0.43;;;22.50;47.60;;;;;;4919859;29;20507;-67
2022/09/09 13:25:04;;;;;;;0.93;0.50;;;22.50;47.60;;;;;;4927989;29;20523;-67